sensor_id;sensor_type;location;lat;lon;timestamp;P1;durP1;ratioP1;P2;durP2;ratioP2
77591;SDS011;66891;46.884;17.436;2023-04-01T00:00:32;4.80;;;0.80;;
77591;SDS011;66891;46.884;17.436;2023-04-01T00:03:01;5.63;;;1.05;;
77591;SDS011;66891;46.884;17.436;2023-04-01T00:05:28;5.10;;;1.20;;
77591;SDS011;66891;46.884;17.436;2023-04-01T00:07:55;5.20;;;0.95;;
77591;SDS011;66891;46.884;17.436;2023-04-01T00:10:22;5.07;;;1.05;;
77591;SDS011;66891;46.884;17.436;2023-04-01T00:12:49;8.57;;;2.90;;
77591;SDS011;66891;46.884;17.436;2023-04-01T00:15:16;7.00;;;1.40;;
77591;SDS011;66891;46.884;17.436;2023-04-01T00:17:43;6.03;;;1.23;;
77591;SDS011;66891;46.884;17.436;2023-04-01T00:20:13;5.80;;;1.15;;
77591;SDS011;66891;46.884;17.436;2023-04-01T00:22:41;5.95;;;1.30;;
77591;SDS011;66891;46.884;17.436;2023-04-01T00:25:08;7.13;;;1.57;;
77591;SDS011;66891;46.884;17.436;2023-04-01T00:27:35;6.45;;;1.52;;
77591;SDS011;66891;46.884;17.436;2023-04-01T00:30:03;7.32;;;1.42;;
77591;SDS011;66891;46.884;17.436;2023-04-01T00:32:30;7.20;;;1.90;;
77591;SDS011;66891;46.884;17.436;2023-04-01T00:34:57;7.68;;;1.98;;
77591;SDS011;66891;46.884;17.436;2023-04-01T00:37:29;7.13;;;1.90;;
77591;SDS011;66891;46.884;17.436;2023-04-01T00:39:56;7.00;;;1.70;;
77591;SDS011;66891;46.884;17.436;2023-04-01T00:42:25;6.95;;;1.90;;
77591;SDS011;66891;46.884;17.436;2023-04-01T00:44:53;7.15;;;1.88;;
77591;SDS011;66891;46.884;17.436;2023-04-01T00:47:20;8.60;;;2.05;;
77591;SDS011;66891;46.884;17.436;2023-04-01T00:49:48;11.07;;;2.93;;
77591;SDS011;66891;46.884;17.436;2023-04-01T00:52:17;11.10;;;2.97;;
77591;SDS011;66891;46.884;17.436;2023-04-01T00:54:47;12.23;;;3.78;;
77591;SDS011;66891;46.884;17.436;2023-04-01T00:57:15;16.70;;;3.65;;
77591;SDS011;66891;46.884;17.436;2023-04-01T00:59:45;13.02;;;2.83;;
77591;SDS011;66891;46.884;17.436;2023-04-01T01:02:14;11.07;;;3.57;;
77591;SDS011;66891;46.884;17.436;2023-04-01T01:04:41;11.50;;;3.50;;
77591;SDS011;66891;46.884;17.436;2023-04-01T01:07:12;12.02;;;2.60;;
77591;SDS011;66891;46.884;17.436;2023-04-01T01:09:43;14.00;;;3.60;;
77591;SDS011;66891;46.884;17.436;2023-04-01T01:12:15;10.43;;;2.95;;
77591;SDS011;66891;46.884;17.436;2023-04-01T01:14:55;11.47;;;2.53;;
77591;SDS011;66891;46.884;17.436;2023-04-01T01:17:26;9.25;;;2.67;;
77591;SDS011;66891;46.884;17.436;2023-04-01T01:20:01;8.18;;;1.88;;
77591;SDS011;66891;46.884;17.436;2023-04-01T01:22:52;8.05;;;2.17;;
77591;SDS011;66891;46.884;17.436;2023-04-01T01:25:32;8.30;;;2.55;;
77591;SDS011;66891;46.884;17.436;2023-04-01T01:28:11;9.23;;;2.83;;
77591;SDS011;66891;46.884;17.436;2023-04-01T01:30:44;9.60;;;2.92;;
77591;SDS011;66891;46.884;17.436;2023-04-01T01:33:24;7.80;;;2.40;;
77591;SDS011;66891;46.884;17.436;2023-04-01T01:35:54;7.78;;;2.50;;
77591;SDS011;66891;46.884;17.436;2023-04-01T01:38:23;8.57;;;2.00;;
77591;SDS011;66891;46.884;17.436;2023-04-01T01:40:51;8.10;;;2.10;;
77591;SDS011;66891;46.884;17.436;2023-04-01T01:43:21;7.85;;;2.35;;
77591;SDS011;66891;46.884;17.436;2023-04-01T01:45:50;7.18;;;2.00;;
77591;SDS011;66891;46.884;17.436;2023-04-01T01:48:17;8.00;;;2.15;;
77591;SDS011;66891;46.884;17.436;2023-04-01T01:50:46;7.63;;;2.00;;
77591;SDS011;66891;46.884;17.436;2023-04-01T01:53:15;7.63;;;2.00;;
77591;SDS011;66891;46.884;17.436;2023-04-01T01:55:43;6.70;;;1.90;;
77591;SDS011;66891;46.884;17.436;2023-04-01T01:58:11;7.22;;;2.17;;
77591;SDS011;66891;46.884;17.436;2023-04-01T02:00:39;7.55;;;2.25;;
77591;SDS011;66891;46.884;17.436;2023-04-01T02:03:07;7.40;;;2.30;;
77591;SDS011;66891;46.884;17.436;2023-04-01T02:05:34;6.73;;;2.00;;
77591;SDS011;66891;46.884;17.436;2023-04-01T02:08:03;6.13;;;2.10;;
77591;SDS011;66891;46.884;17.436;2023-04-01T02:10:34;7.32;;;2.38;;
77591;SDS011;66891;46.884;17.436;2023-04-01T02:13:04;9.07;;;2.85;;
77591;SDS011;66891;46.884;17.436;2023-04-01T02:15:32;9.27;;;3.30;;
77591;SDS011;66891;46.884;17.436;2023-04-01T02:18:00;9.43;;;2.80;;
77591;SDS011;66891;46.884;17.436;2023-04-01T02:20:28;7.68;;;2.10;;
77591;SDS011;66891;46.884;17.436;2023-04-01T02:22:56;7.20;;;1.77;;
77591;SDS011;66891;46.884;17.436;2023-04-01T02:25:25;7.35;;;1.60;;
77591;SDS011;66891;46.884;17.436;2023-04-01T02:27:55;6.88;;;1.88;;
77591;SDS011;66891;46.884;17.436;2023-04-01T02:30:23;6.13;;;1.40;;
77591;SDS011;66891;46.884;17.436;2023-04-01T02:32:52;7.70;;;1.60;;
77591;SDS011;66891;46.884;17.436;2023-04-01T02:35:19;6.53;;;1.10;;
77591;SDS011;66891;46.884;17.436;2023-04-01T02:37:48;4.90;;;1.00;;
77591;SDS011;66891;46.884;17.436;2023-04-01T02:40:16;6.32;;;1.33;;
77591;SDS011;66891;46.884;17.436;2023-04-01T02:42:44;5.13;;;0.97;;
77591;SDS011;66891;46.884;17.436;2023-04-01T02:45:13;5.30;;;1.00;;
77591;SDS011;66891;46.884;17.436;2023-04-01T02:47:40;5.45;;;1.00;;
77591;SDS011;66891;46.884;17.436;2023-04-01T02:50:07;5.50;;;0.85;;
77591;SDS011;66891;46.884;17.436;2023-04-01T02:52:35;5.72;;;1.00;;
77591;SDS011;66891;46.884;17.436;2023-04-01T02:55:02;5.53;;;1.00;;
77591;SDS011;66891;46.884;17.436;2023-04-01T02:57:30;6.18;;;1.10;;
77591;SDS011;66891;46.884;17.436;2023-04-01T02:59:57;6.33;;;1.07;;
77591;SDS011;66891;46.884;17.436;2023-04-01T03:02:25;5.28;;;1.00;;
77591;SDS011;66891;46.884;17.436;2023-04-01T03:04:52;6.18;;;1.10;;
77591;SDS011;66891;46.884;17.436;2023-04-01T03:07:19;5.60;;;1.30;;
77591;SDS011;66891;46.884;17.436;2023-04-01T03:09:47;5.70;;;1.13;;
77591;SDS011;66891;46.884;17.436;2023-04-01T03:12:14;5.43;;;0.90;;
77591;SDS011;66891;46.884;17.436;2023-04-01T03:14:41;5.47;;;0.90;;
77591;SDS011;66891;46.884;17.436;2023-04-01T03:17:08;5.15;;;0.90;;
77591;SDS011;66891;46.884;17.436;2023-04-01T03:19:36;5.83;;;0.90;;
77591;SDS011;66891;46.884;17.436;2023-04-01T03:22:03;5.00;;;0.80;;
77591;SDS011;66891;46.884;17.436;2023-04-01T03:24:30;5.72;;;0.90;;
77591;SDS011;66891;46.884;17.436;2023-04-01T03:26:57;6.40;;;0.98;;
77591;SDS011;66891;46.884;17.436;2023-04-01T03:29:24;4.88;;;1.13;;
77591;SDS011;66891;46.884;17.436;2023-04-01T03:31:51;5.77;;;0.90;;
77591;SDS011;66891;46.884;17.436;2023-04-01T03:34:18;4.72;;;0.70;;
77591;SDS011;66891;46.884;17.436;2023-04-01T03:36:46;6.55;;;1.20;;
77591;SDS011;66891;46.884;17.436;2023-04-01T03:39:13;5.22;;;0.98;;
77591;SDS011;66891;46.884;17.436;2023-04-01T03:41:40;5.35;;;0.88;;
77591;SDS011;66891;46.884;17.436;2023-04-01T03:44:07;5.33;;;0.90;;
77591;SDS011;66891;46.884;17.436;2023-04-01T03:46:34;6.10;;;0.90;;
77591;SDS011;66891;46.884;17.436;2023-04-01T03:49:02;5.25;;;0.80;;
77591;SDS011;66891;46.884;17.436;2023-04-01T03:51:29;4.78;;;1.00;;
77591;SDS011;66891;46.884;17.436;2023-04-01T03:53:58;5.35;;;0.88;;
77591;SDS011;66891;46.884;17.436;2023-04-01T03:56:25;4.80;;;0.80;;
77591;SDS011;66891;46.884;17.436;2023-04-01T03:58:52;4.85;;;0.80;;
77591;SDS011;66891;46.884;17.436;2023-04-01T04:01:19;5.18;;;0.88;;
77591;SDS011;66891;46.884;17.436;2023-04-01T04:03:49;6.00;;;1.17;;
77591;SDS011;66891;46.884;17.436;2023-04-01T04:06:18;5.15;;;1.20;;
77591;SDS011;66891;46.884;17.436;2023-04-01T04:08:45;5.80;;;1.10;;
77591;SDS011;66891;46.884;17.436;2023-04-01T04:11:14;5.38;;;0.77;;
77591;SDS011;66891;46.884;17.436;2023-04-01T04:13:41;4.30;;;0.60;;
77591;SDS011;66891;46.884;17.436;2023-04-01T04:16:09;4.80;;;0.88;;
77591;SDS011;66891;46.884;17.436;2023-04-01T04:18:36;5.03;;;0.73;;
77591;SDS011;66891;46.884;17.436;2023-04-01T04:21:04;4.53;;;0.93;;
77591;SDS011;66891;46.884;17.436;2023-04-01T04:23:31;5.35;;;0.90;;
77591;SDS011;66891;46.884;17.436;2023-04-01T04:26:01;4.93;;;0.90;;
77591;SDS011;66891;46.884;17.436;2023-04-01T04:28:30;4.25;;;0.90;;
77591;SDS011;66891;46.884;17.436;2023-04-01T04:30:57;5.32;;;0.90;;
77591;SDS011;66891;46.884;17.436;2023-04-01T04:33:25;4.80;;;0.80;;
77591;SDS011;66891;46.884;17.436;2023-04-01T04:35:54;6.07;;;1.20;;
77591;SDS011;66891;46.884;17.436;2023-04-01T04:38:21;4.93;;;0.85;;
77591;SDS011;66891;46.884;17.436;2023-04-01T04:40:48;5.00;;;1.00;;
77591;SDS011;66891;46.884;17.436;2023-04-01T04:43:15;5.45;;;1.05;;
77591;SDS011;66891;46.884;17.436;2023-04-01T04:45:44;6.07;;;1.20;;
77591;SDS011;66891;46.884;17.436;2023-04-01T04:48:12;6.53;;;1.33;;
77591;SDS011;66891;46.884;17.436;2023-04-01T04:50:47;5.85;;;1.20;;
77591;SDS011;66891;46.884;17.436;2023-04-01T04:53:14;7.93;;;2.50;;
77591;SDS011;66891;46.884;17.436;2023-04-01T04:55:44;7.50;;;2.08;;
77591;SDS011;66891;46.884;17.436;2023-04-01T04:58:11;8.77;;;2.20;;
77591;SDS011;66891;46.884;17.436;2023-04-01T05:00:38;8.70;;;3.10;;
77591;SDS011;66891;46.884;17.436;2023-04-01T05:03:07;9.48;;;3.00;;
77591;SDS011;66891;46.884;17.436;2023-04-01T05:05:34;8.35;;;2.97;;
77591;SDS011;66891;46.884;17.436;2023-04-01T05:08:01;8.13;;;2.90;;
77591;SDS011;66891;46.884;17.436;2023-04-01T05:10:28;7.17;;;2.00;;
77591;SDS011;66891;46.884;17.436;2023-04-01T05:12:56;10.73;;;4.88;;
77591;SDS011;66891;46.884;17.436;2023-04-01T05:15:23;9.27;;;3.92;;
77591;SDS011;66891;46.884;17.436;2023-04-01T05:17:50;8.60;;;3.38;;
77591;SDS011;66891;46.884;17.436;2023-04-01T05:20:18;13.05;;;3.38;;
77591;SDS011;66891;46.884;17.436;2023-04-01T05:22:45;9.17;;;2.87;;
77591;SDS011;66891;46.884;17.436;2023-04-01T05:25:12;8.27;;;1.90;;
77591;SDS011;66891;46.884;17.436;2023-04-01T05:27:39;7.97;;;2.20;;
77591;SDS011;66891;46.884;17.436;2023-04-01T05:30:07;9.68;;;3.20;;
77591;SDS011;66891;46.884;17.436;2023-04-01T05:32:34;9.60;;;4.13;;
77591;SDS011;66891;46.884;17.436;2023-04-01T05:35:01;9.90;;;4.90;;
77591;SDS011;66891;46.884;17.436;2023-04-01T05:37:29;11.98;;;5.88;;
77591;SDS011;66891;46.884;17.436;2023-04-01T05:40:02;8.32;;;3.45;;
77591;SDS011;66891;46.884;17.436;2023-04-01T05:42:29;10.18;;;3.40;;
77591;SDS011;66891;46.884;17.436;2023-04-01T05:44:56;9.50;;;3.65;;
77591;SDS011;66891;46.884;17.436;2023-04-01T05:47:23;11.17;;;5.67;;
77591;SDS011;66891;46.884;17.436;2023-04-01T05:49:50;13.45;;;6.45;;
77591;SDS011;66891;46.884;17.436;2023-04-01T05:52:17;12.35;;;5.65;;
77591;SDS011;66891;46.884;17.436;2023-04-01T05:54:45;12.25;;;5.30;;
77591;SDS011;66891;46.884;17.436;2023-04-01T05:57:13;11.98;;;4.68;;
77591;SDS011;66891;46.884;17.436;2023-04-01T05:59:40;22.97;;;10.47;;
77591;SDS011;66891;46.884;17.436;2023-04-01T06:02:08;20.52;;;10.98;;
77591;SDS011;66891;46.884;17.436;2023-04-01T06:04:37;20.10;;;10.27;;
77591;SDS011;66891;46.884;17.436;2023-04-01T06:07:05;17.58;;;9.30;;
77591;SDS011;66891;46.884;17.436;2023-04-01T06:09:35;17.83;;;9.05;;
77591;SDS011;66891;46.884;17.436;2023-04-01T06:14:47;24.08;;;15.13;;
77591;SDS011;66891;46.884;17.436;2023-04-01T06:17:19;23.52;;;13.27;;
77591;SDS011;66891;46.884;17.436;2023-04-01T06:19:51;22.15;;;11.77;;
77591;SDS011;66891;46.884;17.436;2023-04-01T06:22:31;23.40;;;12.95;;
77591;SDS011;66891;46.884;17.436;2023-04-01T06:25:10;15.47;;;8.30;;
77591;SDS011;66891;46.884;17.436;2023-04-01T06:27:45;12.15;;;6.25;;
77591;SDS011;66891;46.884;17.436;2023-04-01T06:30:24;12.70;;;6.40;;
77591;SDS011;66891;46.884;17.436;2023-04-01T06:33:00;10.68;;;5.90;;
77591;SDS011;66891;46.884;17.436;2023-04-01T06:35:34;10.45;;;5.43;;
77591;SDS011;66891;46.884;17.436;2023-04-01T06:38:24;12.73;;;6.33;;
77591;SDS011;66891;46.884;17.436;2023-04-01T06:41:07;12.02;;;6.93;;
77591;SDS011;66891;46.884;17.436;2023-04-01T06:43:38;20.33;;;9.70;;
77591;SDS011;66891;46.884;17.436;2023-04-01T06:46:11;27.98;;;13.32;;
77591;SDS011;66891;46.884;17.436;2023-04-01T06:48:43;36.97;;;19.50;;
77591;SDS011;66891;46.884;17.436;2023-04-01T06:51:17;39.07;;;19.67;;
77591;SDS011;66891;46.884;17.436;2023-04-01T06:53:46;43.63;;;23.25;;
77591;SDS011;66891;46.884;17.436;2023-04-01T06:56:16;29.10;;;15.32;;
77591;SDS011;66891;46.884;17.436;2023-04-01T06:58:45;23.25;;;13.27;;
77591;SDS011;66891;46.884;17.436;2023-04-01T07:01:16;20.27;;;11.13;;
77591;SDS011;66891;46.884;17.436;2023-04-01T07:03:47;20.20;;;11.57;;
77591;SDS011;66891;46.884;17.436;2023-04-01T07:06:23;16.42;;;10.05;;
77591;SDS011;66891;46.884;17.436;2023-04-01T07:08:52;22.42;;;11.80;;
77591;SDS011;66891;46.884;17.436;2023-04-01T07:11:23;20.27;;;11.38;;
77591;SDS011;66891;46.884;17.436;2023-04-01T07:13:53;25.02;;;12.15;;
77591;SDS011;66891;46.884;17.436;2023-04-01T07:16:24;26.87;;;14.10;;
77591;SDS011;66891;46.884;17.436;2023-04-01T07:18:53;30.17;;;16.85;;
77591;SDS011;66891;46.884;17.436;2023-04-01T07:21:25;24.35;;;13.75;;
77591;SDS011;66891;46.884;17.436;2023-04-01T07:23:54;20.08;;;10.88;;
77591;SDS011;66891;46.884;17.436;2023-04-01T07:26:23;11.98;;;5.20;;
77591;SDS011;66891;46.884;17.436;2023-04-01T07:28:51;9.57;;;3.43;;
77591;SDS011;66891;46.884;17.436;2023-04-01T07:31:20;9.05;;;3.65;;
77591;SDS011;66891;46.884;17.436;2023-04-01T07:33:54;15.52;;;7.00;;
77591;SDS011;66891;46.884;17.436;2023-04-01T07:36:26;11.93;;;5.80;;
77591;SDS011;66891;46.884;17.436;2023-04-01T07:39:00;10.10;;;4.50;;
77591;SDS011;66891;46.884;17.436;2023-04-01T07:41:32;9.40;;;4.13;;
77591;SDS011;66891;46.884;17.436;2023-04-01T07:44:03;11.18;;;5.40;;
77591;SDS011;66891;46.884;17.436;2023-04-01T07:46:38;13.63;;;6.32;;
77591;SDS011;66891;46.884;17.436;2023-04-01T07:49:09;9.60;;;4.50;;
77591;SDS011;66891;46.884;17.436;2023-04-01T07:51:40;16.70;;;5.82;;
77591;SDS011;66891;46.884;17.436;2023-04-01T07:54:11;12.40;;;5.23;;
77591;SDS011;66891;46.884;17.436;2023-04-01T07:56:43;11.38;;;4.38;;
77591;SDS011;66891;46.884;17.436;2023-04-01T07:59:14;9.95;;;3.13;;
77591;SDS011;66891;46.884;17.436;2023-04-01T08:01:44;11.55;;;3.58;;
77591;SDS011;66891;46.884;17.436;2023-04-01T08:04:19;8.88;;;3.20;;
77591;SDS011;66891;46.884;17.436;2023-04-01T08:06:50;8.83;;;3.00;;
77591;SDS011;66891;46.884;17.436;2023-04-01T08:09:21;7.18;;;2.40;;
77591;SDS011;66891;46.884;17.436;2023-04-01T08:11:53;11.23;;;3.63;;
77591;SDS011;66891;46.884;17.436;2023-04-01T08:14:26;9.38;;;3.60;;
77591;SDS011;66891;46.884;17.436;2023-04-01T08:16:57;8.95;;;2.70;;
77591;SDS011;66891;46.884;17.436;2023-04-01T08:19:30;13.17;;;3.60;;
77591;SDS011;66891;46.884;17.436;2023-04-01T08:21:58;11.00;;;3.92;;
77591;SDS011;66891;46.884;17.436;2023-04-01T08:24:33;8.60;;;2.95;;
77591;SDS011;66891;46.884;17.436;2023-04-01T08:27:14;7.50;;;1.80;;
77591;SDS011;66891;46.884;17.436;2023-04-01T08:29:44;5.45;;;1.73;;
77591;SDS011;66891;46.884;17.436;2023-04-01T08:32:15;8.10;;;2.77;;
77591;SDS011;66891;46.884;17.436;2023-04-01T08:34:46;9.85;;;3.20;;
77591;SDS011;66891;46.884;17.436;2023-04-01T08:37:14;7.15;;;2.42;;
77591;SDS011;66891;46.884;17.436;2023-04-01T08:39:45;7.63;;;2.33;;
77591;SDS011;66891;46.884;17.436;2023-04-01T08:42:26;10.90;;;2.83;;
77591;SDS011;66891;46.884;17.436;2023-04-01T08:47:46;8.23;;;2.58;;
77591;SDS011;66891;46.884;17.436;2023-04-01T08:50:25;17.15;;;5.97;;
77591;SDS011;66891;46.884;17.436;2023-04-01T08:52:56;6.60;;;2.03;;
77591;SDS011;66891;46.884;17.436;2023-04-01T08:55:29;6.57;;;1.50;;
77591;SDS011;66891;46.884;17.436;2023-04-01T08:58:02;7.43;;;1.30;;
77591;SDS011;66891;46.884;17.436;2023-04-01T09:00:33;6.03;;;1.35;;
77591;SDS011;66891;46.884;17.436;2023-04-01T09:03:09;5.47;;;1.13;;
77591;SDS011;66891;46.884;17.436;2023-04-01T09:05:52;11.13;;;3.45;;
77591;SDS011;66891;46.884;17.436;2023-04-01T09:08:27;14.40;;;5.50;;
77591;SDS011;66891;46.884;17.436;2023-04-01T09:10:57;5.93;;;0.90;;
77591;SDS011;66891;46.884;17.436;2023-04-01T09:13:32;5.13;;;0.73;;
77591;SDS011;66891;46.884;17.436;2023-04-01T09:16:11;30.35;;;10.32;;
77591;SDS011;66891;46.884;17.436;2023-04-01T09:18:45;5.53;;;0.90;;
77591;SDS011;66891;46.884;17.436;2023-04-01T09:21:24;6.05;;;0.70;;
77591;SDS011;66891;46.884;17.436;2023-04-01T09:26:44;3.63;;;0.57;;
77591;SDS011;66891;46.884;17.436;2023-04-01T09:29:19;3.60;;;0.55;;
77591;SDS011;66891;46.884;17.436;2023-04-01T09:34:44;4.03;;;0.50;;
77591;SDS011;66891;46.884;17.436;2023-04-01T09:37:21;7.07;;;1.40;;
77591;SDS011;66891;46.884;17.436;2023-04-01T09:40:14;4.45;;;0.50;;
77591;SDS011;66891;46.884;17.436;2023-04-01T09:42:45;5.93;;;0.70;;
77591;SDS011;66891;46.884;17.436;2023-04-01T09:45:32;2.72;;;0.30;;
77591;SDS011;66891;46.884;17.436;2023-04-01T09:48:03;3.20;;;0.40;;
77591;SDS011;66891;46.884;17.436;2023-04-01T09:50:34;3.67;;;0.50;;
77591;SDS011;66891;46.884;17.436;2023-04-01T09:55:53;4.88;;;0.73;;
77591;SDS011;66891;46.884;17.436;2023-04-01T10:01:17;4.50;;;0.65;;
77591;SDS011;66891;46.884;17.436;2023-04-01T10:04:01;6.63;;;1.37;;
77591;SDS011;66891;46.884;17.436;2023-04-01T10:09:47;3.47;;;0.50;;
77591;SDS011;66891;46.884;17.436;2023-04-01T10:12:38;4.85;;;0.60;;
77591;SDS011;66891;46.884;17.436;2023-04-01T10:15:22;3.08;;;0.47;;
77591;SDS011;66891;46.884;17.436;2023-04-01T10:18:10;8.37;;;1.73;;
77591;SDS011;66891;46.884;17.436;2023-04-01T10:23:27;6.97;;;1.15;;
77591;SDS011;66891;46.884;17.436;2023-04-01T10:26:03;2.58;;;0.30;;
77591;SDS011;66891;46.884;17.436;2023-04-01T10:28:40;5.07;;;0.50;;
77591;SDS011;66891;46.884;17.436;2023-04-01T10:36:57;5.55;;;0.90;;
77591;SDS011;66891;46.884;17.436;2023-04-01T10:39:38;4.43;;;0.60;;
77591;SDS011;66891;46.884;17.436;2023-04-01T10:42:19;4.22;;;0.80;;
77591;SDS011;66891;46.884;17.436;2023-04-01T10:47:43;3.60;;;0.40;;
77591;SDS011;66891;46.884;17.436;2023-04-01T10:50:25;2.30;;;0.30;;
77591;SDS011;66891;46.884;17.436;2023-04-01T10:56:03;3.13;;;0.50;;
77591;SDS011;66891;46.884;17.436;2023-04-01T11:01:41;3.50;;;0.60;;
77591;SDS011;66891;46.884;17.436;2023-04-01T11:07:30;2.97;;;0.40;;
77591;SDS011;66891;46.884;17.436;2023-04-01T11:15:41;4.05;;;0.52;;
77591;SDS011;66891;46.884;17.436;2023-04-01T11:18:29;3.78;;;0.50;;
77591;SDS011;66891;46.884;17.436;2023-04-01T11:21:19;4.65;;;0.40;;
77591;SDS011;66891;46.884;17.436;2023-04-01T11:24:15;3.92;;;0.40;;
77591;SDS011;66891;46.884;17.436;2023-04-01T11:26:51;4.10;;;0.53;;
77591;SDS011;66891;46.884;17.436;2023-04-01T11:29:35;5.00;;;0.50;;
77591;SDS011;66891;46.884;17.436;2023-04-01T11:32:16;3.95;;;0.65;;
77591;SDS011;66891;46.884;17.436;2023-04-01T11:34:54;3.72;;;0.50;;
77591;SDS011;66891;46.884;17.436;2023-04-01T11:37:27;4.18;;;0.50;;
77591;SDS011;66891;46.884;17.436;2023-04-01T11:40:02;4.77;;;0.70;;
77591;SDS011;66891;46.884;17.436;2023-04-01T11:42:34;6.35;;;1.10;;
77591;SDS011;66891;46.884;17.436;2023-04-01T11:45:10;3.13;;;0.50;;
77591;SDS011;66891;46.884;17.436;2023-04-01T11:47:44;3.05;;;0.38;;
77591;SDS011;66891;46.884;17.436;2023-04-01T11:50:18;3.42;;;0.40;;
77591;SDS011;66891;46.884;17.436;2023-04-01T11:52:56;3.00;;;0.40;;
77591;SDS011;66891;46.884;17.436;2023-04-01T11:55:30;3.95;;;0.60;;
77591;SDS011;66891;46.884;17.436;2023-04-01T12:00:57;2.72;;;0.40;;
77591;SDS011;66891;46.884;17.436;2023-04-01T12:03:32;3.08;;;0.40;;
77591;SDS011;66891;46.884;17.436;2023-04-01T12:06:05;3.77;;;0.50;;
77591;SDS011;66891;46.884;17.436;2023-04-01T12:08:37;3.33;;;0.40;;
77591;SDS011;66891;46.884;17.436;2023-04-01T12:11:12;6.05;;;1.08;;
77591;SDS011;66891;46.884;17.436;2023-04-01T12:13:45;5.55;;;1.10;;
77591;SDS011;66891;46.884;17.436;2023-04-01T12:19:03;3.67;;;0.50;;
77591;SDS011;66891;46.884;17.436;2023-04-01T12:21:32;4.00;;;0.60;;
77591;SDS011;66891;46.884;17.436;2023-04-01T12:24:10;4.25;;;0.75;;
77591;SDS011;66891;46.884;17.436;2023-04-01T12:26:50;3.92;;;0.45;;
77591;SDS011;66891;46.884;17.436;2023-04-01T12:29:25;2.83;;;0.35;;
77591;SDS011;66891;46.884;17.436;2023-04-01T12:31:59;5.00;;;0.80;;
77591;SDS011;66891;46.884;17.436;2023-04-01T12:37:16;5.60;;;0.80;;
77591;SDS011;66891;46.884;17.436;2023-04-01T12:39:51;4.63;;;0.65;;
77591;SDS011;66891;46.884;17.436;2023-04-01T12:42:31;4.70;;;0.43;;
77591;SDS011;66891;46.884;17.436;2023-04-01T12:45:03;4.30;;;0.50;;
77591;SDS011;66891;46.884;17.436;2023-04-01T12:47:38;3.05;;;0.40;;
77591;SDS011;66891;46.884;17.436;2023-04-01T12:50:19;4.00;;;0.40;;
77591;SDS011;66891;46.884;17.436;2023-04-01T12:52:54;4.43;;;0.70;;
77591;SDS011;66891;46.884;17.436;2023-04-01T12:55:37;3.83;;;0.45;;
77591;SDS011;66891;46.884;17.436;2023-04-01T13:01:09;4.03;;;0.70;;
77591;SDS011;66891;46.884;17.436;2023-04-01T13:03:47;4.35;;;0.73;;
77591;SDS011;66891;46.884;17.436;2023-04-01T13:06:20;2.45;;;0.40;;
77591;SDS011;66891;46.884;17.436;2023-04-01T13:08:52;4.57;;;0.60;;
77591;SDS011;66891;46.884;17.436;2023-04-01T13:11:22;6.10;;;1.13;;
77591;SDS011;66891;46.884;17.436;2023-04-01T13:16:43;6.97;;;1.60;;
77591;SDS011;66891;46.884;17.436;2023-04-01T13:19:13;3.65;;;0.47;;
77591;SDS011;66891;46.884;17.436;2023-04-01T13:21:46;7.35;;;2.40;;
77591;SDS011;66891;46.884;17.436;2023-04-01T13:24:24;5.60;;;0.80;;
77591;SDS011;66891;46.884;17.436;2023-04-01T13:26:54;3.63;;;0.82;;
77591;SDS011;66891;46.884;17.436;2023-04-01T13:29:25;4.60;;;0.52;;
77591;SDS011;66891;46.884;17.436;2023-04-01T13:32:02;4.75;;;0.47;;
77591;SDS011;66891;46.884;17.436;2023-04-01T13:34:35;4.50;;;0.50;;
77591;SDS011;66891;46.884;17.436;2023-04-01T13:37:11;8.97;;;1.67;;
77591;SDS011;66891;46.884;17.436;2023-04-01T13:39:42;11.85;;;2.17;;
77591;SDS011;66891;46.884;17.436;2023-04-01T13:42:14;7.53;;;1.08;;
77591;SDS011;66891;46.884;17.436;2023-04-01T13:44:43;5.68;;;0.93;;
77591;SDS011;66891;46.884;17.436;2023-04-01T13:47:37;5.60;;;0.90;;
77591;SDS011;66891;46.884;17.436;2023-04-01T13:50:17;4.60;;;0.60;;
77591;SDS011;66891;46.884;17.436;2023-04-01T13:55:35;4.32;;;0.70;;
77591;SDS011;66891;46.884;17.436;2023-04-01T14:00:54;14.30;;;5.55;;
77591;SDS011;66891;46.884;17.436;2023-04-01T14:03:38;6.70;;;1.13;;
77591;SDS011;66891;46.884;17.436;2023-04-01T14:06:11;4.72;;;0.73;;
77591;SDS011;66891;46.884;17.436;2023-04-01T14:08:49;4.32;;;0.60;;
77591;SDS011;66891;46.884;17.436;2023-04-01T14:11:19;3.25;;;0.50;;
77591;SDS011;66891;46.884;17.436;2023-04-01T14:13:54;3.15;;;0.40;;
77591;SDS011;66891;46.884;17.436;2023-04-01T14:16:31;4.67;;;0.90;;
77591;SDS011;66891;46.884;17.436;2023-04-01T14:19:11;2.30;;;0.30;;
77591;SDS011;66891;46.884;17.436;2023-04-01T14:21:40;3.42;;;0.40;;
77591;SDS011;66891;46.884;17.436;2023-04-01T14:24:16;3.28;;;0.40;;
77591;SDS011;66891;46.884;17.436;2023-04-01T14:26:53;4.28;;;0.50;;
77591;SDS011;66891;46.884;17.436;2023-04-01T14:29:24;2.80;;;0.40;;
77591;SDS011;66891;46.884;17.436;2023-04-01T14:31:58;2.53;;;0.30;;
77591;SDS011;66891;46.884;17.436;2023-04-01T14:34:33;2.95;;;0.30;;
77591;SDS011;66891;46.884;17.436;2023-04-01T14:37:06;1.60;;;0.20;;
77591;SDS011;66891;46.884;17.436;2023-04-01T14:42:45;2.23;;;0.30;;
77591;SDS011;66891;46.884;17.436;2023-04-01T14:45:19;3.50;;;0.40;;
77591;SDS011;66891;46.884;17.436;2023-04-01T14:47:50;2.20;;;0.30;;
77591;SDS011;66891;46.884;17.436;2023-04-01T14:50:20;2.75;;;0.30;;
77591;SDS011;66891;46.884;17.436;2023-04-01T14:52:52;2.60;;;0.40;;
77591;SDS011;66891;46.884;17.436;2023-04-01T14:55:31;4.43;;;0.90;;
77591;SDS011;66891;46.884;17.436;2023-04-01T14:58:07;2.28;;;0.40;;
77591;SDS011;66891;46.884;17.436;2023-04-01T15:00:48;1.83;;;0.30;;
77591;SDS011;66891;46.884;17.436;2023-04-01T15:03:19;2.67;;;0.40;;
77591;SDS011;66891;46.884;17.436;2023-04-01T15:05:49;3.60;;;0.40;;
77591;SDS011;66891;46.884;17.436;2023-04-01T15:08:31;5.60;;;0.90;;
77591;SDS011;66891;46.884;17.436;2023-04-01T15:11:13;2.67;;;0.40;;
77591;SDS011;66891;46.884;17.436;2023-04-01T15:13:46;3.75;;;0.60;;
77591;SDS011;66891;46.884;17.436;2023-04-01T15:16:19;4.78;;;0.57;;
77591;SDS011;66891;46.884;17.436;2023-04-01T15:18:49;3.75;;;0.60;;
77591;SDS011;66891;46.884;17.436;2023-04-01T15:21:27;2.33;;;0.37;;
77591;SDS011;66891;46.884;17.436;2023-04-01T15:24:00;10.43;;;2.95;;
77591;SDS011;66891;46.884;17.436;2023-04-01T15:26:37;4.20;;;0.75;;
77591;SDS011;66891;46.884;17.436;2023-04-01T15:31:52;5.20;;;1.10;;
77591;SDS011;66891;46.884;17.436;2023-04-01T15:34:26;7.23;;;1.67;;
77591;SDS011;66891;46.884;17.436;2023-04-01T15:36:58;6.40;;;1.83;;
77591;SDS011;66891;46.884;17.436;2023-04-01T15:39:30;5.43;;;0.95;;
77591;SDS011;66891;46.884;17.436;2023-04-01T15:42:10;7.35;;;1.10;;
77591;SDS011;66891;46.884;17.436;2023-04-01T15:44:44;10.25;;;2.00;;
77591;SDS011;66891;46.884;17.436;2023-04-01T15:47:25;9.23;;;1.90;;
77591;SDS011;66891;46.884;17.436;2023-04-01T15:49:57;10.95;;;3.10;;
77591;SDS011;66891;46.884;17.436;2023-04-01T15:52:35;9.90;;;2.38;;
77591;SDS011;66891;46.884;17.436;2023-04-01T15:55:09;11.73;;;4.05;;
77591;SDS011;66891;46.884;17.436;2023-04-01T15:57:43;11.45;;;4.20;;
77591;SDS011;66891;46.884;17.436;2023-04-01T16:00:22;16.83;;;6.90;;
77591;SDS011;66891;46.884;17.436;2023-04-01T16:02:51;18.33;;;5.15;;
77591;SDS011;66891;46.884;17.436;2023-04-01T16:05:23;14.60;;;5.50;;
77591;SDS011;66891;46.884;17.436;2023-04-01T16:07:57;13.20;;;5.35;;
77591;SDS011;66891;46.884;17.436;2023-04-01T16:10:31;18.27;;;7.95;;